Time;durP1;ratioP1;P1;durP2;ratioP2;P2;SDS_P1;SDS_P2;PMS_P1;PMS_P2;Temp;Humidity;BMP_temperature;BMP_pressure;BME280_temperature;BME280_humidity;BME280_pressure;Samples;Min_cycle;Max_cycle;Signal;HPM_P1;HPM_P2
2022/11/14 00:00:49;;;;;;;322.07;43.00;;;;;;;-141.28;100.00;52391.75;5115144;28;20445;-75
2022/11/14 00:03:16;;;;;;;167.33;40.83;;;;;;;-141.28;100.00;52358.38;5116412;28;20445;-78
2022/11/14 00:05:46;;;;;;;188.03;41.40;;;;;;;-141.28;100.00;52340.69;5118726;28;20452;-73
2022/11/14 00:08:17;;;;;;;180.30;40.47;;;;;;;-141.28;100.00;52266.06;5122301;28;20441;-74
2022/11/14 00:10:46;;;;;;;224.00;41.73;;;;;;;-141.28;100.00;52195.38;5120770;28;20537;-75
2022/11/14 00:13:14;;;;;;;96.00;36.00;;;;;;;-141.28;100.00;52160.03;5118221;28;20547;-76
2022/11/14 00:15:41;;;;;;;73.87;32.47;;;;;;;-141.28;100.00;52160.03;5115393;28;20465;-76
2022/11/14 00:18:08;;;;;;;123.67;33.23;;;;;;;-141.28;100.00;52014.69;5115274;28;20533;-74
2022/11/14 00:20:35;;;;;;;63.33;31.63;;;;;;;-141.28;100.00;52110.94;5114885;28;20984;-76
2022/11/14 00:23:04;;;;;;;81.70;32.63;;;;;;;-141.28;100.00;52061.81;5114092;28;20449;-75
2022/11/14 00:25:32;;;;;;;77.70;33.27;;;;;;;-141.28;100.00;52077.53;5115213;28;20444;-78
2022/11/14 00:27:59;;;;;;;87.30;34.53;;;;;;;-141.28;100.00;51645.53;5114582;28;20444;-77
2022/11/14 00:30:28;;;;;;;102.83;33.23;;;;;;;-141.28;100.00;52018.63;5114923;28;20536;-75
2022/11/14 00:32:54;;;;;;;109.40;36.67;;;;;;;-141.28;100.00;52093.25;5114736;28;20503;-75
2022/11/14 00:35:21;;;;;;;171.10;37.97;;;;;;;-141.28;100.00;51841.88;5114753;28;20536;-77
2022/11/14 00:37:48;;;;;;;80.97;36.57;;;;;;;-141.28;100.00;52057.91;5114850;28;20444;-77
2022/11/14 00:40:17;;;;;;;134.63;37.93;;;;;;;-141.28;100.00;52059.88;5114856;28;20456;-78
2022/11/14 00:42:46;;;;;;;105.37;36.40;;;;;;;-141.28;100.00;52050.03;5114888;28;20444;-78
2022/11/14 00:45:13;;;;;;;90.67;36.43;;;;;;;-141.28;100.00;52073.63;5114575;28;20465;-77
2022/11/14 00:47:40;;;;;;;83.13;36.00;;;;;;;-141.28;100.00;52006.84;5114765;28;21023;-79
2022/11/14 00:50:08;;;;;;;86.77;37.43;;;;;;;-141.28;100.00;51889.03;5114430;28;20539;-74
2022/11/14 00:52:37;;;;;;;70.80;33.17;;;;;;;-141.28;100.00;52046.13;5114897;28;20902;-74
2022/11/14 00:55:04;;;;;;;79.43;34.87;;;;;;;-141.28;100.00;52059.88;5114473;28;20858;-77
2022/11/14 00:57:33;;;;;;;74.50;33.90;;;;;;;-141.28;100.00;52085.41;5105239;28;20547;-75
2022/11/14 01:00:00;;;;;;;80.43;33.77;;;;;;;-141.28;100.00;52061.81;5114083;28;21817;-79
2022/11/14 01:02:28;;;;;;;69.53;32.20;;;;;;;-141.28;100.00;52089.31;5113899;28;20465;-78
2022/11/14 01:04:55;;;;;;;73.73;33.77;;;;;;;-141.28;100.00;52085.41;5115913;28;20448;-79
2022/11/14 01:07:22;;;;;;;73.27;33.53;;;;;;;-141.28;100.00;52030.41;5117822;28;20448;-76
2022/11/14 01:09:49;;;;;;;72.00;33.37;;;;;;;-141.28;100.00;52112.88;5117947;28;20537;-77
2022/11/14 01:12:16;;;;;;;69.60;33.87;;;;;;;-141.28;100.00;52089.31;5113663;28;20573;-80
2022/11/14 01:14:44;;;;;;;68.43;33.70;;;;;;;-141.28;100.00;52148.25;5114065;28;20982;-75
2022/11/14 01:17:11;;;;;;;67.97;32.07;;;;;;;-141.28;100.00;52128.59;5113672;28;20526;-78
2022/11/14 01:19:38;;;;;;;65.17;31.50;;;;;;;-141.28;100.00;52152.16;5113983;28;20449;-75
2022/11/14 01:22:05;;;;;;;65.73;31.70;;;;;;;-141.28;100.00;52136.44;5114346;28;20456;-75
2022/11/14 01:24:33;;;;;;;69.13;33.60;;;;;;;-141.28;100.00;52211.09;5114317;28;20448;-74
2022/11/14 01:27:00;;;;;;;68.63;32.50;;;;;;;-141.28;100.00;52254.28;5113553;28;20453;-74
2022/11/14 01:29:27;;;;;;;66.37;31.50;;;;;;;-141.28;100.00;52175.72;5113983;28;20437;-77
2022/11/14 01:31:56;;;;;;;66.60;32.23;;;;;;;-141.28;100.00;52175.72;5113536;28;20451;-77
2022/11/14 01:34:23;;;;;;;74.80;32.30;;;;;;;-141.28;100.00;52171.81;5113710;28;20444;-74
2022/11/14 01:36:50;;;;;;;64.67;32.13;;;;;;;-141.28;100.00;52199.28;5113839;28;20872;-75
2022/11/14 01:39:17;;;;;;;66.57;31.13;;;;;;;-141.28;100.00;52224.81;5113237;28;20460;-76
2022/11/14 01:41:44;;;;;;;61.03;30.57;;;;;;;-141.28;100.00;52220.91;5113618;28;20536;-75
2022/11/14 01:44:15;;;;;;;70.97;32.90;;;;;;;-141.28;100.00;52163.94;5113320;28;20448;-79
2022/11/14 01:46:46;;;;;;;62.07;31.23;;;;;;;-141.28;100.00;52201.25;5113694;28;20482;-77
2022/11/14 01:49:19;;;;;;;63.90;29.77;;;;;;;-141.28;100.00;52216.97;5099493;28;20523;-76
2022/11/14 01:51:48;;;;;;;61.63;30.60;;;;;;;-141.28;100.00;52207.16;5113287;28;20467;-75
2022/11/14 01:54:20;;;;;;;70.20;30.20;;;;;;;-141.28;100.00;52144.31;5113039;28;20445;-75
2022/11/14 01:56:52;;;;;;;75.50;30.93;;;;;;;-141.28;100.00;52150.19;5113547;28;20453;-78
2022/11/14 01:59:28;;;;;;;71.43;31.00;;;;;;;-141.28;100.00;51963.63;5112850;28;20448;-75
2022/11/14 02:01:58;;;;;;;83.53;31.37;;;;;;;-141.28;100.00;52053.97;5113246;28;20799;-77
2022/11/14 02:04:30;;;;;;;77.77;32.00;;;;;;;-141.28;100.00;52030.41;5112547;28;20457;-75
2022/11/14 02:07:00;;;;;;;82.67;30.57;;;;;;;-141.28;100.00;52048.09;5112765;28;20545;-76
2022/11/14 02:09:30;;;;;;;95.70;30.57;;;;;;;-141.28;100.00;51961.69;5113051;28;20456;-76
2022/11/14 02:12:00;;;;;;;139.83;33.50;;;;;;;-141.28;100.00;51932.22;5113034;28;20473;-77
2022/11/14 02:14:30;;;;;;;135.37;31.60;;;;;;;-141.28;100.00;51916.50;5113293;28;20468;-78
2022/11/14 02:16:56;;;;;;;159.60;31.97;;;;;;;-141.28;100.00;51849.75;5112298;28;20441;-76
2022/11/14 02:19:24;;;;;;;138.73;32.03;;;;;;;-141.28;100.00;51765.31;5111653;28;20513;-76
2022/11/14 02:21:52;;;;;;;167.03;33.53;;;;;;;-141.28;100.00;51751.56;5115714;28;20448;-76
2022/11/14 02:24:20;;;;;;;174.20;32.00;;;;;;;-141.28;100.00;51576.81;5100565;28;20536;-76
2022/11/14 02:26:47;;;;;;;179.50;30.30;;;;;;;-141.28;100.00;51633.75;5111217;28;20441;-79
2022/11/14 02:29:14;;;;;;;266.60;33.67;;;;;;;-141.28;100.00;51398.13;5112515;28;20449;-75
2022/11/14 02:31:41;;;;;;;157.23;32.57;;;;;;;-141.28;100.00;51390.28;5112283;28;20484;-76
2022/11/14 02:34:08;;;;;;;92.47;30.77;;;;;;;-141.28;100.00;51370.66;5112551;28;20498;-76
2022/11/14 02:36:34;;;;;;;150.40;29.70;;;;;;;-141.28;100.00;51321.56;5112174;28;21015;-77
2022/11/14 02:39:03;;;;;;;144.83;28.10;;;;;;;-141.28;100.00;51239.09;5112151;28;20460;-76
2022/11/14 02:41:29;;;;;;;138.40;29.10;;;;;;;-141.28;100.00;51205.72;5112659;28;20925;-76
2022/11/14 02:43:58;;;;;;;173.57;28.60;;;;;;;-141.28;100.00;50891.63;5112343;28;20925;-77
2022/11/14 02:46:25;;;;;;;137.20;26.90;;;;;;;-141.28;100.00;51103.63;5112525;28;20501;-76
2022/11/14 02:48:53;;;;;;;107.83;23.67;;;;;;;-141.28;100.00;51099.72;5112811;28;20890;-79
2022/11/14 02:51:19;;;;;;;86.23;22.20;;;;;;;-141.28;100.00;51093.81;5112963;28;20491;-76
2022/11/14 02:53:47;;;;;;;76.07;23.10;;;;;;;-141.28;100.00;51105.59;5100540;28;20446;-76
2022/11/14 02:56:15;;;;;;;170.70;24.73;;;;;;;-141.28;100.00;51105.59;5111847;28;20501;-77
2022/11/14 02:58:42;;;;;;;105.17;22.77;;;;;;;-141.28;100.00;51038.84;5100980;28;20457;-75
2022/11/14 03:01:08;;;;;;;135.57;26.17;;;;;;;-141.28;100.00;51062.41;5124790;28;20421;-76
2022/11/14 03:03:36;;;;;;;155.47;28.63;;;;;;;-141.28;100.00;51048.66;5137276;28;20433;-75
2022/11/14 03:06:04;;;;;;;140.40;28.20;;;;;;;-141.28;100.00;50946.59;5135216;28;20440;-74
2022/11/14 03:08:31;;;;;;;96.67;27.60;;;;;;;-141.28;100.00;50954.44;5134848;28;20443;-74
2022/11/14 03:11:04;;;;;;;87.53;26.30;;;;;;;-141.28;100.00;50940.69;5133419;28;20480;-75
2022/11/14 03:13:33;;;;;;;77.83;24.67;;;;;;;-141.28;100.00;50909.28;5113395;28;20530;-75
2022/11/14 03:16:05;;;;;;;74.13;21.87;;;;;;;-141.28;100.00;50911.25;5113010;28;20448;-77
2022/11/14 03:18:33;;;;;;;163.47;23.30;;;;;;;-141.28;100.00;50895.53;5113498;28;20480;-76
2022/11/14 03:21:06;;;;;;;112.63;21.40;;;;;;;-141.28;100.00;50887.69;5113209;28;20459;-75
2022/11/14 03:23:33;;;;;;;109.23;19.80;;;;;;;-141.28;100.00;50923.03;5112070;28;20971;-75
2022/11/14 03:26:00;;;;;;;177.67;22.13;;;;;;;-141.28;100.00;50911.25;5111842;28;20983;-75
2022/11/14 03:28:29;;;;;;;123.50;19.43;;;;;;;-141.28;100.00;50925.00;5111642;28;20521;-78
2022/11/14 03:30:57;;;;;;;89.83;18.73;;;;;;;-141.28;100.00;50887.69;5116611;28;21003;-76
2022/11/14 03:33:25;;;;;;;82.20;19.20;;;;;;;-141.28;100.00;50828.78;5118565;28;20448;-78
2022/11/14 03:35:53;;;;;;;99.70;21.47;;;;;;;-141.28;100.00;50809.16;5118700;28;20452;-77
2022/11/14 03:38:21;;;;;;;83.70;20.43;;;;;;;-141.28;100.00;50746.34;5118359;28;20531;-79
2022/11/14 03:40:49;;;;;;;159.40;22.93;;;;;;;-141.28;100.00;50709.06;5121362;28;20449;-79
2022/11/14 03:43:16;;;;;;;137.93;21.80;;;;;;;-141.28;100.00;50603.06;5118582;28;20436;-76
2022/11/14 03:45:43;;;;;;;119.47;21.47;;;;;;;-141.28;100.00;50703.16;5118659;28;20931;-78
2022/11/14 03:48:12;;;;;;;103.83;20.97;;;;;;;-141.28;100.00;50683.53;5118268;28;20969;-76
2022/11/14 03:50:40;;;;;;;151.77;22.83;;;;;;;-141.28;100.00;50630.53;5118736;28;20529;-78
2022/11/14 03:53:07;;;;;;;152.53;21.37;;;;;;;-141.28;100.00;50432.28;5118530;28;20440;-80
2022/11/14 03:55:33;;;;;;;67.43;17.90;;;;;;;-141.28;100.00;50601.09;5118694;27;20449;-75
2022/11/14 03:58:00;;;;;;;60.67;17.40;;;;;;;-141.28;100.00;50573.59;5118158;28;20444;-78
2022/11/14 04:00:28;;;;;;;96.60;18.27;;;;;;;-141.28;100.00;50534.34;5118333;28;20528;-76
2022/11/14 04:02:58;;;;;;;102.20;20.77;;;;;;;-141.28;100.00;50471.53;5123202;27;20460;-77
2022/11/14 04:05:29;;;;;;;84.93;18.07;;;;;;;-141.28;100.00;50349.84;5121065;28;20443;-75
2022/11/14 04:07:56;;;;;;;44.77;18.23;;;;;;;-141.28;100.00;50332.19;5118804;28;20505;-76
2022/11/14 04:10:23;;;;;;;36.27;17.33;;;;;;;-141.28;100.00;50287.03;5104459;28;20483;-77
2022/11/14 04:12:51;;;;;;;48.13;13.90;;;;;;;-141.28;100.00;50294.88;5118033;28;20585;-79
2022/11/14 04:15:19;;;;;;;34.87;15.47;;;;;;;-141.28;100.00;50128.06;5117351;28;20548;-77
2022/11/14 04:17:47;;;;;;;34.37;15.53;;;;;;;-141.28;100.00;50343.94;5117945;28;20475;-77
2022/11/14 04:20:14;;;;;;;115.10;18.70;;;;;;;-141.28;100.00;50322.34;5117776;28;20955;-77
2022/11/14 04:22:42;;;;;;;130.47;20.47;;;;;;;-141.28;100.00;50326.28;5118144;28;20447;-78
2022/11/14 04:25:09;;;;;;;149.03;20.17;;;;;;;-141.28;100.00;50275.25;5121322;28;20444;-75
2022/11/14 04:27:37;;;;;;;72.13;19.70;;;;;;;-141.28;100.00;50306.66;5124997;27;20444;-77
2022/11/14 04:30:04;;;;;;;113.97;30.13;;;;;;;-141.28;100.00;50257.59;5117640;28;20448;-76
2022/11/14 04:32:32;;;;;;;121.93;33.83;;;;;;;-141.28;100.00;50236.00;5117994;28;20452;-78
2022/11/14 04:34:59;;;;;;;116.70;31.07;;;;;;;-141.28;100.00;50200.66;5118318;28;20536;-78
2022/11/14 04:37:25;;;;;;;64.07;22.43;;;;;;;-141.28;100.00;50114.31;5118464;28;20513;-76
2022/11/14 04:39:57;;;;;;;96.20;22.93;;;;;;;-141.28;100.00;50073.09;5118720;28;20962;-77
2022/11/14 04:42:26;;;;;;;78.40;20.27;;;;;;;-141.28;100.00;50000.47;5114369;28;20460;-75
2022/11/14 04:44:56;;;;;;;152.33;40.03;;;;;;;-141.28;100.00;50020.09;5121109;28;20443;-76
2022/11/14 04:47:23;;;;;;;130.80;30.97;;;;;;;-141.28;100.00;50016.19;5116503;28;20444;-75
2022/11/14 04:49:56;;;;;;;104.93;27.67;;;;;;;-141.28;100.00;49945.53;5098554;28;20475;-76
2022/11/14 04:52:24;;;;;;;165.77;22.47;;;;;;;-141.28;100.00;49941.59;5114764;28;20885;-77
2022/11/14 04:54:59;;;;;;;79.83;17.73;;;;;;;-141.28;100.00;49890.56;5116892;28;20822;-75
2022/11/14 04:57:32;;;;;;;116.97;20.73;;;;;;;-141.28;100.00;49843.47;5119682;28;20471;-74
2022/11/14 04:59:59;;;;;;;70.80;19.53;;;;;;;-141.28;100.00;49788.53;5105474;28;20512;-78
2022/11/14 05:02:27;;;;;;;52.10;19.20;;;;;;;-141.28;100.00;49816.00;5101985;28;20923;-76
2022/11/14 05:04:54;;;;;;;100.73;21.90;;;;;;;-141.28;100.00;49761.06;5114030;28;20454;-76
2022/11/14 05:07:21;;;;;;;79.57;23.77;;;;;;;-141.28;100.00;49694.31;5110917;28;20465;-80
2022/11/14 05:09:48;;;;;;;82.53;23.37;;;;;;;-141.28;100.00;49568.75;5103846;28;20445;-77
2022/11/14 05:12:15;;;;;;;102.23;23.27;;;;;;;-141.28;100.00;49584.44;5114949;28;20484;-76
2022/11/14 05:14:43;;;;;;;129.20;30.53;;;;;;;-141.28;100.00;49545.19;5115199;28;20513;-79
2022/11/14 05:17:11;;;;;;;128.40;29.07;;;;;;;-141.28;100.00;49478.47;5101022;28;20892;-78
2022/11/14 05:19:38;;;;;;;73.97;21.63;;;;;;;-141.28;100.00;49439.22;5114190;28;20506;-75
2022/11/14 05:22:05;;;;;;;94.80;21.07;;;;;;;-141.28;100.00;49382.31;5113857;28;21008;-77
2022/11/14 05:24:32;;;;;;;93.47;21.67;;;;;;;-141.28;100.00;49364.66;5114112;28;20452;-75
2022/11/14 05:27:00;;;;;;;87.23;23.40;;;;;;;-141.28;100.00;49233.19;5113873;28;20449;-75
2022/11/14 05:29:27;;;;;;;119.80;23.50;;;;;;;-141.28;100.00;49215.53;5114746;28;20804;-78
2022/11/14 05:31:56;;;;;;;193.97;43.40;;;;;;;-141.28;100.00;49182.19;5114857;28;20515;-75
2022/11/14 05:34:23;;;;;;;83.20;26.43;;;;;;;-141.28;100.00;49188.06;5114281;28;20536;-76
2022/11/14 05:36:51;;;;;;;133.63;28.37;;;;;;;-141.28;100.00;49140.97;5113969;28;20510;-76
2022/11/14 05:39:18;;;;;;;113.27;23.00;;;;;;;-141.28;100.00;49072.31;5118690;28;20470;-73
2022/11/14 05:41:45;;;;;;;102.67;20.50;;;;;;;-141.28;100.00;49027.19;5123187;28;20448;-75
2022/11/14 05:44:13;;;;;;;160.70;22.73;;;;;;;-141.28;100.00;48958.50;5123883;28;20532;-73
2022/11/14 05:46:40;;;;;;;101.07;20.27;;;;;;;-141.28;100.00;48925.16;5122754;28;20506;-75
2022/11/14 05:49:08;;;;;;;84.23;21.03;;;;;;;-141.28;100.00;48917.31;5124702;28;20444;-74
2022/11/14 05:51:34;;;;;;;107.70;22.43;;;;;;;-141.28;100.00;48882.00;5123542;28;20473;-75
2022/11/14 05:54:02;;;;;;;88.13;21.50;;;;;;;-141.28;100.00;48858.44;5106501;28;20820;-74
2022/11/14 05:56:28;;;;;;;122.50;22.43;;;;;;;-141.28;100.00;48811.34;5110378;28;20444;-77
2022/11/14 05:58:56;;;;;;;83.40;23.00;;;;;;;-141.28;100.00;48689.72;5113292;28;20445;-80
2022/11/14 06:01:24;;;;;;;146.97;28.67;;;;;;;-141.28;100.00;48750.53;5113053;28;20565;-77
2022/11/14 06:03:51;;;;;;;150.13;30.00;;;;;;;-141.28;100.00;48705.41;5113341;28;20496;-75
2022/11/14 06:06:21;;;;;;;190.77;58.97;;;;;;;-141.28;100.00;48685.81;5113006;28;20497;-77
2022/11/14 06:08:48;;;;;;;149.17;50.10;;;;;;;-141.28;100.00;48662.25;5112691;28;21013;-76
2022/11/14 06:11:17;;;;;;;122.73;27.73;;;;;;;-141.28;100.00;48646.56;5112777;28;20488;-75
2022/11/14 06:13:44;;;;;;;109.83;25.73;;;;;;;-141.28;100.00;48626.94;5108145;28;20485;-79
2022/11/14 06:16:13;;;;;;;85.53;19.47;;;;;;;-141.28;100.00;48599.47;5105925;28;20444;-75
2022/11/14 06:18:41;;;;;;;76.33;20.53;;;;;;;-141.28;100.00;48581.81;5112526;28;21059;-74
2022/11/14 06:21:10;;;;;;;75.23;19.80;;;;;;;-141.28;100.00;48536.69;5113642;28;20456;-78
2022/11/14 06:23:39;;;;;;;66.20;19.13;;;;;;;-141.28;100.00;48519.06;5112866;28;20540;-78
2022/11/14 06:26:12;;;;;;;80.60;21.47;;;;;;;-141.28;100.00;48470.00;5112734;28;20474;-77
2022/11/14 06:28:39;;;;;;;68.27;18.53;;;;;;;-141.28;100.00;48471.97;5112781;28;20520;-77
2022/11/14 06:31:06;;;;;;;70.70;19.97;;;;;;;-141.28;100.00;48440.56;5112448;28;20571;-75
2022/11/14 06:33:35;;;;;;;68.73;20.90;;;;;;;-141.28;100.00;48420.97;5112884;28;20540;-76
2022/11/14 06:36:04;;;;;;;73.10;20.57;;;;;;;-141.28;100.00;48403.31;5112306;28;20916;-77
2022/11/14 06:38:33;;;;;;;56.90;18.27;;;;;;;-141.28;100.00;48415.06;5112152;28;20494;-75
2022/11/14 06:41:05;;;;;;;57.50;20.53;;;;;;;-141.28;100.00;48391.53;5112208;28;20472;-75
2022/11/14 06:43:33;;;;;;;40.20;18.17;;;;;;;-141.28;100.00;48383.69;5112403;28;20447;-77
2022/11/14 06:46:00;;;;;;;41.90;17.13;;;;;;;-141.28;100.00;48387.63;5112275;28;20528;-74
2022/11/14 06:48:29;;;;;;;48.70;16.87;;;;;;;-141.28;100.00;48399.38;5112153;28;20516;-79
2022/11/14 06:50:57;;;;;;;33.90;16.47;;;;;;;-141.28;100.00;48338.56;5111738;28;20441;-76
2022/11/14 06:53:24;;;;;;;34.60;15.90;;;;;;;-141.28;100.00;48415.06;5112146;28;20449;-79
2022/11/14 06:55:56;;;;;;;37.47;14.70;;;;;;;-141.28;100.00;48411.16;5110770;28;20976;-76
2022/11/14 06:58:27;;;;;;;29.97;14.90;;;;;;;-141.28;100.00;48430.78;5112046;28;20531;-75
2022/11/14 07:00:56;;;;;;;83.20;36.33;;;;;;;-141.28;100.00;48444.50;5111129;28;20445;-75
2022/11/14 07:03:23;;;;;;;99.30;42.47;;;;;;;-141.28;100.00;48481.78;5112073;28;20506;-75
2022/11/14 07:05:50;;;;;;;51.97;19.47;;;;;;;-141.28;100.00;48462.16;5111213;28;20448;-77
2022/11/14 07:08:17;;;;;;;32.40;16.07;;;;;;;-141.28;100.00;48454.31;5112088;28;20445;-76
2022/11/14 07:10:44;;;;;;;44.13;18.60;;;;;;;-141.28;100.00;48485.69;5111777;28;20452;-79
2022/11/14 07:13:11;;;;;;;49.73;19.60;;;;;;;-141.28;100.00;48473.94;5111979;28;20854;-78
2022/11/14 07:15:39;;;;;;;46.73;18.83;;;;;;;-141.28;100.00;48497.47;5112316;28;20993;-75
2022/11/14 07:18:06;;;;;;;43.73;19.37;;;;;;;-141.28;100.00;48462.16;5111700;28;20464;-76
2022/11/14 07:20:33;;;;;;;51.90;20.07;;;;;;;-141.28;100.00;48499.44;5111384;28;20907;-76
2022/11/14 07:23:00;;;;;;;48.33;19.70;;;;;;;-141.28;100.00;48519.06;5111657;28;20449;-78
2022/11/14 07:25:28;;;;;;;49.37;20.43;;;;;;;-141.28;100.00;48528.84;5112235;28;20448;-76
2022/11/14 07:27:57;;;;;;;43.47;20.03;;;;;;;-141.28;100.00;48536.69;5111898;28;20445;-76
2022/11/14 07:30:24;;;;;;;41.60;20.77;;;;;;;-141.28;100.00;48552.41;5112093;28;20445;-79
2022/11/14 07:32:57;;;;;;;61.03;21.73;;;;;;;-141.28;100.00;48548.47;5111628;28;20919;-79
2022/11/14 07:35:25;;;;;;;69.17;28.63;;;;;;;-141.28;100.00;48573.97;5113885;28;20444;-76
2022/11/14 07:37:52;;;;;;;53.23;24.30;;;;;;;-141.28;100.00;48591.63;5111423;28;20894;-77
2022/11/14 07:40:20;;;;;;;46.13;18.73;;;;;;;-141.28;100.00;48638.72;5111720;28;20457;-76
2022/11/14 07:42:48;;;;;;;36.93;17.73;;;;;;;-141.28;100.00;48654.41;5111448;28;20502;-78
2022/11/14 07:45:15;;;;;;;34.87;17.03;;;;;;;-141.28;100.00;48681.88;5119789;28;20505;-75
2022/11/14 07:47:42;;;;;;;39.80;18.47;;;;;;;-141.28;100.00;48709.34;5113222;28;20761;-76
2022/11/14 07:50:11;;;;;;;34.47;17.67;;;;;;;-141.28;100.00;48721.13;5111364;28;20978;-78
2022/11/14 07:52:38;;;;;;;41.83;18.60;;;;;;;-141.28;100.00;48736.81;5111383;28;20492;-75
2022/11/14 07:55:06;;;;;;;42.10;19.57;;;;;;;-141.28;100.00;48758.38;5111651;28;21016;-76
2022/11/14 07:57:33;;;;;;;43.27;21.03;;;;;;;-141.28;100.00;48779.97;5111002;28;20537;-76
2022/11/14 08:00:00;;;;;;;44.50;20.43;;;;;;;-141.28;100.00;48783.91;5111876;28;20448;-78
2022/11/14 08:02:27;;;;;;;48.93;22.43;;;;;;;-141.28;100.00;48760.34;5108422;28;20453;-77
2022/11/14 08:04:55;;;;;;;54.07;23.43;;;;;;;-141.28;100.00;48819.22;5101517;28;20974;-76
2022/11/14 08:07:23;;;;;;;60.93;25.67;;;;;;;-141.28;100.00;48825.09;5111686;28;20440;-75
2022/11/14 08:09:50;;;;;;;61.83;27.53;;;;;;;-141.28;100.00;48838.81;5098611;28;20454;-75
2022/11/14 08:12:16;;;;;;;62.47;27.40;;;;;;;-141.28;100.00;48882.00;5110863;28;21075;-76
2022/11/14 08:14:43;;;;;;;60.07;25.93;;;;;;;-141.28;100.00;48893.75;5111985;28;20480;-78
2022/11/14 08:17:10;;;;;;;59.53;24.47;;;;;;;-141.28;100.00;48844.72;5116130;28;20509;-77
2022/11/14 08:19:37;;;;;;;59.37;27.00;;;;;;;-141.28;100.00;48891.78;5123741;28;20441;-76
2022/11/14 08:22:05;;;;;;;68.50;28.10;;;;;;;-141.28;100.00;48905.53;5122818;28;20947;-78
2022/11/14 08:24:33;;;;;;;73.03;29.60;;;;;;;-141.28;100.00;48925.16;5119801;28;20452;-77
2022/11/14 08:27:01;;;;;;;64.97;27.60;;;;;;;-141.28;100.00;48933.00;5119901;28;20448;-75
2022/11/14 08:29:28;;;;;;;59.93;26.67;;;;;;;-141.28;100.00;48915.34;5122449;28;20501;-74
2022/11/14 08:31:55;;;;;;;64.17;27.23;;;;;;;-141.28;100.00;48907.50;5122950;28;21002;-76
2022/11/14 08:34:24;;;;;;;66.90;26.63;;;;;;;-141.28;100.00;48972.25;5122285;28;20466;-76
2022/11/14 08:36:51;;;;;;;68.47;26.27;;;;;;;-141.28;100.00;48940.84;5109912;28;20805;-76
2022/11/14 08:39:18;;;;;;;59.40;25.90;;;;;;;-141.28;100.00;48974.19;5116694;28;20537;-76
2022/11/14 08:41:46;;;;;;;58.80;26.97;;;;;;;-141.28;100.00;48984.00;5101705;28;20449;-76
2022/11/14 08:44:13;;;;;;;65.03;27.20;;;;;;;-141.28;100.00;48995.78;5114355;28;20539;-78
2022/11/14 08:46:40;;;;;;;62.13;23.83;;;;;;;-141.28;100.00;49013.44;5115059;28;20464;-79
2022/11/14 08:49:07;;;;;;;58.37;25.33;;;;;;;-141.28;100.00;49015.41;5114546;28;20437;-77
2022/11/14 08:51:34;;;;;;;66.87;25.77;;;;;;;-141.28;100.00;48974.19;5114737;28;20813;-77
2022/11/14 08:54:02;;;;;;;60.33;25.33;;;;;;;-141.28;100.00;49062.50;5116514;28;20450;-75
2022/11/14 08:56:30;;;;;;;52.73;24.03;;;;;;;-141.28;100.00;49050.72;5100889;28;20850;-75
2022/11/14 08:58:58;;;;;;;60.83;25.43;;;;;;;-141.28;100.00;49082.13;5114400;28;20444;-78
2022/11/14 09:01:25;;;;;;;64.63;27.30;;;;;;;-141.28;100.00;49093.88;5114683;28;20444;-78
2022/11/14 09:03:52;;;;;;;53.13;23.40;;;;;;;-141.28;100.00;48964.38;5116750;28;20466;-75
2022/11/14 09:06:19;;;;;;;46.80;22.30;;;;;;;-141.28;100.00;49084.06;5108158;28;20459;-75
2022/11/14 09:08:46;;;;;;;48.30;22.77;;;;;;;-141.28;100.00;49089.97;5117631;28;20449;-76
2022/11/14 09:11:13;;;;;;;52.67;23.00;;;;;;;-141.28;100.00;49101.72;5116768;28;20933;-74
2022/11/14 09:13:40;;;;;;;46.27;23.77;;;;;;;-141.28;100.00;49117.44;5114389;28;20492;-75
2022/11/14 09:16:10;;;;;;;58.90;25.30;;;;;;;-141.28;100.00;49113.50;5114349;28;20836;-74
2022/11/14 09:18:37;;;;;;;60.70;29.73;;;;;;;-141.28;100.00;49121.34;5114319;28;20534;-77
2022/11/14 09:21:07;;;;;;;62.97;29.77;;;;;;;-141.28;100.00;49119.38;5114780;28;20497;-76
2022/11/14 09:23:34;;;;;;;72.67;36.03;;;;;;;-141.28;100.00;49129.19;5114019;28;20517;-76
2022/11/14 09:26:04;;;;;;;42.17;21.67;;;;;;;-141.28;100.00;49095.84;5113808;28;20855;-76
2022/11/14 09:28:31;;;;;;;46.17;23.03;;;;;;;-141.28;100.00;49109.59;5113047;28;20437;-76
2022/11/14 09:31:00;;;;;;;50.83;27.13;;;;;;;-141.28;100.00;49117.44;5113863;28;20444;-78
2022/11/14 09:33:29;;;;;;;58.63;27.00;;;;;;;-141.28;100.00;49086.03;5113499;28;20485;-76
2022/11/14 09:35:59;;;;;;;50.17;24.13;;;;;;;-141.28;100.00;49101.72;5113767;28;20476;-76
2022/11/14 09:38:26;;;;;;;49.43;23.43;;;;;;;-141.28;100.00;49099.78;5113154;28;20449;-76
2022/11/14 09:41:03;;;;;;;41.67;22.57;;;;;;;-141.28;100.00;49105.66;5113346;28;20470;-75
2022/11/14 09:43:46;;;;;;;42.97;22.30;;;;;;;-141.28;100.00;49070.34;5113272;28;20445;-76
2022/11/14 09:46:20;;;;;;;45.43;22.77;;;;;;;-141.28;100.00;49052.69;5113719;28;20444;-75
2022/11/14 09:48:51;;;;;;;47.03;23.70;;;;;;;-141.28;100.00;49078.19;5113641;28;20444;-74
2022/11/14 09:51:21;;;;;;;48.53;23.23;;;;;;;-141.28;100.00;49066.41;5113358;28;20797;-78
2022/11/14 09:53:54;;;;;;;51.60;25.40;;;;;;;-141.28;100.00;49117.44;5113316;28;20488;-76
2022/11/14 09:56:25;;;;;;;46.10;25.23;;;;;;;-141.28;100.00;49103.69;5112724;28;20505;-75
2022/11/14 09:58:52;;;;;;;58.33;24.47;;;;;;;-141.28;100.00;49029.13;5113180;28;20452;-80
2022/11/14 10:01:32;;;;;;;47.97;25.10;;;;;;;-141.28;100.00;49152.75;5112908;28;20833;-76
2022/11/14 10:04:09;;;;;;;50.57;25.13;;;;;;;-141.28;100.00;49184.13;5112980;28;20444;-75
2022/11/14 10:06:45;;;;;;;52.07;23.77;;;;;;;-141.28;100.00;49193.94;5112991;28;20465;-77
2022/11/14 10:09:34;;;;;;;63.70;24.83;;;;;;;-141.28;100.00;49188.06;5100092;28;20461;-75
2022/11/14 10:12:09;;;;;;;63.37;28.93;;;;;;;-141.28;100.00;49168.44;5114374;28;20476;-74
2022/11/14 10:14:55;;;;;;;73.07;29.43;;;;;;;-141.28;100.00;49166.47;5112489;28;20460;-76
2022/11/14 10:17:46;;;;;;;63.87;33.47;;;;;;;-141.28;100.00;49129.19;5112757;28;20473;-74
2022/11/14 10:20:23;;;;;;;58.67;28.93;;;;;;;-141.28;100.00;49093.88;5100159;28;20874;-78
2022/11/14 10:23:05;;;;;;;63.63;31.30;;;;;;;-141.28;100.00;49246.94;5112468;28;20468;-76
2022/11/14 10:25:45;;;;;;;64.70;28.73;;;;;;;-141.28;100.00;49329.34;5112385;28;20803;-78
2022/11/14 10:28:31;;;;;;;51.30;27.40;;;;;;;-141.28;100.00;49399.97;5112707;28;20448;-75
2022/11/14 10:31:07;;;;;;;52.87;27.47;;;;;;;-141.28;100.00;49445.13;5112648;28;20436;-75
2022/11/14 10:33:42;;;;;;;44.30;24.67;;;;;;;-141.28;100.00;49472.59;5112920;28;20667;-76
2022/11/14 10:36:17;;;;;;;51.77;26.17;;;;;;;-141.28;100.00;49657.03;5112076;28;20501;-75
2022/11/14 10:38:51;;;;;;;49.57;25.17;;;;;;;-141.28;100.00;49812.06;5112717;28;20443;-77
2022/11/14 10:41:19;;;;;;;40.27;18.93;;;;;;;-141.28;100.00;50043.66;5111706;28;20452;-74
2022/11/14 10:43:48;;;;;;;39.17;21.80;;;;;;;-141.28;100.00;50012.25;5112803;28;20978;-77
2022/11/14 10:46:20;;;;;;;39.90;22.20;;;;;;;-141.28;100.00;50078.97;5112677;28;20444;-76
2022/11/14 10:48:50;;;;;;;39.37;20.03;;;;;;;-141.28;100.00;50110.38;5112069;28;20445;-75
2022/11/14 10:51:25;;;;;;;37.73;21.37;;;;;;;-141.28;100.00;50153.56;5112110;28;20444;-78
2022/11/14 10:53:56;;;;;;;37.77;19.07;;;;;;;-141.28;100.00;50285.06;5111859;28;20836;-75
2022/11/14 10:56:24;;;;;;;36.63;20.93;;;;;;;-141.28;100.00;50479.38;5112307;28;20207;-75
2022/11/14 10:58:51;;;;;;;37.20;22.57;;;;;;;-141.28;100.00;50601.09;5113715;28;20197;-74